Time;durP1;ratioP1;P1;durP2;ratioP2;P2;SDS_P1;SDS_P2;PMS_P1;PMS_P2;Temp;Humidity;BMP_temperature;BMP_pressure;BME280_temperature;BME280_humidity;BME280_pressure;Samples;Min_cycle;Max_cycle;Signal;HPM_P1;HPM_P2
2022/06/23 00:02:12;;;;;;;2.17;1.97;;;-12.00;82.00;;;;;;5139988;27;20196;-70
2022/06/23 00:04:41;;;;;;;2.07;1.90;;;-12.20;82.70;;;;;;5139620;27;20197;-68
2022/06/23 00:07:17;;;;;;;3.13;2.20;;;21.50;95.80;;;;;;5139873;27;20170;-68
2022/06/23 00:09:46;;;;;;;1.73;1.63;;;21.40;97.00;;;;;;5139729;27;20176;-67
2022/06/23 00:12:31;;;;;;;2.17;2.03;;;21.30;96.20;;;;;;5139783;27;20265;-69
2022/06/23 00:15:04;;;;;;;3.90;2.67;;;21.20;97.50;;;;;;5138627;27;20475;-68
2022/06/23 00:18:04;;;;;;;2.17;1.97;;;21.10;95.90;;;;;;5138341;27;20439;-66
2022/06/23 00:20:47;;;;;;;6.80;2.07;;;21.10;96.20;;;;;;5130076;27;20264;-66
2022/06/23 00:23:15;;;;;;;1.93;1.67;;;21.00;98.00;;;;;;5139597;27;20578;-66
2022/06/23 00:26:15;;;;;;;2.53;1.57;;;20.90;97.00;;;;;;5139528;27;20166;-69
2022/06/23 00:28:51;;;;;;;1.60;1.23;;;20.60;97.30;;;;;;5136977;27;20496;-67
2022/06/23 00:31:36;;;;;;;1.80;1.63;;;20.50;99.10;;;;;;5139374;27;20490;-67
2022/06/23 00:34:36;;;;;;;2.20;1.97;;;20.20;98.00;;;;;;5138895;27;20604;-66
2022/06/23 00:37:23;;;;;;;2.67;1.70;;;19.80;99.20;;;;;;5103954;27;20552;-66
2022/06/23 00:40:00;;;;;;;2.17;2.07;;;18.70;99.90;;;;;;5139168;27;20478;-69
2022/06/23 00:42:40;;;;;;;2.70;2.17;;;-20.40;86.20;;;;;;5139081;27;20174;-68
2022/06/23 00:45:13;;;;;;;2.43;2.23;;;-19.90;88.50;;;;;;5138107;27;20559;-67
2022/06/23 00:47:54;;;;;;;1.43;1.33;;;-16.30;90.90;;;;;;5139115;27;20162;-70
2022/06/23 00:50:23;;;;;;;3.17;1.90;;;-13.50;89.30;;;;;;5137507;27;20222;-67
2022/06/23 00:52:59;;;;;;;4.43;2.20;;;-18.30;89.90;;;;;;5138946;27;20189;-76
2022/06/23 00:56:03;;;;;;;3.87;1.70;;;-15.20;91.20;;;;;;5138775;27;20173;-75
2022/06/23 00:58:34;;;;;;;1.93;1.83;;;-18.10;89.10;;;;;;5122562;27;20188;-69
2022/06/23 01:01:41;;;;;;;4.27;2.97;;;-19.00;88.60;;;;;;5138740;27;20174;-68
2022/06/23 01:04:35;;;;;;;2.57;2.13;;;-19.30;89.20;;;;;;5126415;27;20216;-71
2022/06/23 01:07:21;;;;;;;1.70;1.60;;;-23.40;88.80;;;;;;5131033;27;20622;-69
2022/06/23 01:09:53;;;;;;;2.10;1.90;;;19.10;99.90;;;;;;5138612;27;20170;-65
2022/06/23 01:12:37;;;;;;;4.20;1.80;;;20.40;99.90;;;;;;5138548;27;20539;-64
2022/06/23 01:15:18;;;;;;;4.40;2.07;;;20.20;99.90;;;;;;5137474;27;20173;-67
2022/06/23 01:17:51;;;;;;;2.57;2.20;;;19.80;99.90;;;;;;5138268;27;20169;-67
2022/06/23 01:20:45;;;;;;;3.60;2.57;;;19.50;99.90;;;;;;5138245;27;20177;-65
2022/06/23 01:23:37;;;;;;;2.07;1.97;;;19.40;99.90;;;;;;5138306;27;20279;-64
2022/06/23 01:26:38;;;;;;;3.97;2.27;;;19.20;99.90;;;;;;5138173;27;20169;-67
2022/06/23 01:29:36;;;;;;;3.47;2.47;;;18.70;99.90;;;;;;5130250;27;20250;-64
2022/06/23 01:32:08;;;;;;;2.43;2.27;;;18.10;99.90;;;;;;5137880;27;20222;-65
2022/06/23 01:34:45;;;;;;;2.07;1.97;;;-26.90;94.30;;;;;;5137984;27;20267;-66
2022/06/23 01:37:32;;;;;;;2.80;2.40;;;-24.20;94.10;;;;;;5137872;27;20185;-70
2022/06/23 01:40:11;;;;;;;4.20;2.00;;;-24.50;94.50;;;;;;5138160;27;20165;-71
2022/06/23 01:43:10;;;;;;;2.90;2.70;;;-20.10;95.30;;;;;;5136812;27;20207;-64
2022/06/23 01:45:43;;;;;;;3.20;2.37;;;-21.10;95.10;;;;;;5136665;27;20230;-67
2022/06/23 01:48:54;;;;;;;5.10;1.80;;;-21.80;95.80;;;;;;5136456;27;20260;-72
2022/06/23 01:51:52;;;;;;;2.40;2.20;;;-17.20;97.40;;;;;;5137611;27;20185;-71
2022/06/23 01:54:21;;;;;;;4.20;2.27;;;-16.70;97.20;;;;;;5128354;27;20181;-65
2022/06/23 01:57:02;;;;;;;5.17;2.10;;;-14.50;98.20;;;;;;5136617;27;20185;-64
2022/06/23 01:59:47;;;;;;;5.03;2.73;;;-15.90;96.70;;;;;;5137643;27;20180;-64
2022/06/23 02:02:26;;;;;;;1.97;1.87;;;-14.90;97.70;;;;;;5137154;27;20186;-65
2022/06/23 02:04:54;;;;;;;3.67;2.70;;;-16.10;96.70;;;;;;5137283;27;20216;-65
2022/06/23 02:07:56;;;;;;;3.87;2.07;;;-16.70;98.00;;;;;;5137212;27;20172;-66
2022/06/23 02:10:36;;;;;;;2.40;2.27;;;-16.90;96.60;;;;;;5101798;27;20185;-63
2022/06/23 02:13:19;;;;;;;3.50;1.90;;;-20.90;96.00;;;;;;5137429;27;20198;-66
2022/06/23 02:16:13;;;;;;;2.90;2.60;;;-20.30;96.60;;;;;;5137241;27;20465;-66
2022/06/23 02:18:59;;;;;;;3.47;1.73;;;-20.60;96.70;;;;;;5137369;27;20223;-65
2022/06/23 02:21:39;;;;;;;2.27;2.07;;;-20.80;96.30;;;;;;5137252;27;20213;-67
2022/06/23 02:24:17;;;;;;;6.77;2.73;;;-18.30;97.50;;;;;;5137248;27;20194;-66
2022/06/23 02:27:21;;;;;;;4.20;2.20;;;-24.10;95.70;;;;;;5137107;27;20157;-67
2022/06/23 02:30:01;;;;;;;2.20;2.10;;;-24.60;95.70;;;;;;5136399;27;20260;-69
2022/06/23 02:32:54;;;;;;;2.13;1.93;;;-26.90;96.20;;;;;;5136990;27;20177;-64
2022/06/23 02:36:00;;;;;;;2.30;2.20;;;-25.30;97.20;;;;;;5136939;27;20169;-66
2022/06/23 02:38:32;;;;;;;6.93;2.63;;;-21.90;97.00;;;;;;5135854;27;20192;-65
2022/06/23 02:41:07;;;;;;;4.17;2.17;;;-20.40;97.50;;;;;;5136239;27;20262;-65
2022/06/23 02:43:41;;;;;;;2.07;1.97;;;-26.60;96.80;;;;;;5136670;27;20189;-65
2022/06/23 02:46:20;;;;;;;1.93;1.83;;;-21.60;97.80;;;;;;5136735;27;20172;-64
2022/06/23 02:49:03;;;;;;;9.30;2.57;;;15.30;99.90;;;;;;5136922;27;20445;-65
2022/06/23 02:51:47;;;;;;;3.43;2.40;;;16.40;99.90;;;;;;5135720;27;20219;-66
2022/06/23 02:54:27;;;;;;;2.97;2.67;;;15.10;99.90;;;;;;5136702;27;20168;-66
2022/06/23 02:57:23;;;;;;;1.77;1.67;;;15.70;99.90;;;;;;5136902;27;20214;-65
2022/06/23 03:00:15;;;;;;;3.30;2.27;;;15.30;99.90;;;;;;5136688;27;20557;-70
2022/06/23 03:02:55;;;;;;;4.50;3.20;;;16.20;99.90;;;;;;5131643;28;20192;-68
2022/06/23 03:05:42;;;;;;;2.50;2.30;;;13.60;99.90;;;;;;5135372;27;20285;-64
2022/06/23 03:08:11;;;;;;;1.97;1.87;;;13.00;99.90;;;;;;5136732;27;20549;-65
2022/06/23 03:11:08;;;;;;;7.70;2.43;;;16.50;99.90;;;;;;5136744;27;20197;-67
2022/06/23 03:13:42;;;;;;;2.80;2.50;;;18.80;99.90;;;;;;5136320;27;20169;-69
2022/06/23 03:16:18;;;;;;;5.90;2.93;;;18.80;99.90;;;;;;5135765;27;20269;-64
2022/06/23 03:18:52;;;;;;;3.87;2.37;;;18.80;99.90;;;;;;5136682;27;20579;-65
2022/06/23 03:21:30;;;;;;;3.03;2.47;;;18.70;99.90;;;;;;5136592;27;20294;-70
2022/06/23 03:24:16;;;;;;;2.40;1.93;;;18.70;99.90;;;;;;5136520;27;20276;-68
2022/06/23 03:26:50;;;;;;;2.83;2.63;;;18.80;99.90;;;;;;5136601;27;20206;-66
2022/06/23 03:29:28;;;;;;;4.17;2.00;;;18.80;99.90;;;;;;5134942;27;20576;-64
2022/06/23 03:31:54;;;;;;;2.57;2.37;;;18.70;99.90;;;;;;5136484;27;20228;-66
2022/06/23 03:34:33;;;;;;;2.50;2.30;;;18.60;99.90;;;;;;5136304;27;20245;-64
2022/06/23 03:37:06;;;;;;;2.80;2.30;;;18.50;99.90;;;;;;5136416;27;20192;-64
2022/06/23 03:42:28;;;;;;;3.10;2.90;;;18.10;99.90;;;;;;5136131;28;20584;-67
2022/06/23 03:45:23;;;;;;;2.40;2.10;;;17.40;99.90;;;;;;5136199;27;20253;-67
2022/06/23 03:48:12;;;;;;;2.97;2.67;;;16.70;99.90;;;;;;5136437;27;20173;-64
2022/06/23 03:51:03;;;;;;;4.37;2.37;;;18.40;99.90;;;;;;5136512;27;20194;-66
2022/06/23 03:53:43;;;;;;;2.23;2.13;;;18.40;99.90;;;;;;5139449;27;20177;-65
2022/06/23 03:56:18;;;;;;;4.20;3.13;;;18.40;99.90;;;;;;5140028;27;20591;-65
2022/06/23 03:59:15;;;;;;;2.83;2.57;;;18.50;99.90;;;;;;5139749;27;20232;-65
2022/06/23 04:02:02;;;;;;;2.73;2.53;;;18.50;99.90;;;;;;5139462;27;20637;-64
2022/06/23 04:04:49;;;;;;;2.67;2.47;;;18.50;99.90;;;;;;5139629;27;20193;-66
2022/06/23 04:07:30;;;;;;;6.90;2.53;;;18.50;99.90;;;;;;5139812;27;20173;-68
2022/06/23 04:10:33;;;;;;;8.40;2.93;;;18.60;99.90;;;;;;5139987;27;20192;-66
2022/06/23 04:13:16;;;;;;;2.77;2.60;;;18.70;99.90;;;;;;5139734;27;20307;-66
2022/06/23 04:15:43;;;;;;;3.37;3.07;;;18.70;99.90;;;;;;5139798;27;20648;-72
2022/06/23 04:18:41;;;;;;;2.60;2.40;;;18.60;99.90;;;;;;5139741;27;20165;-72
2022/06/23 04:21:15;;;;;;;3.30;3.00;;;18.70;99.90;;;;;;5131319;27;20468;-67
2022/06/23 04:23:50;;;;;;;2.80;2.60;;;18.80;99.90;;;;;;5139424;27;20197;-69
2022/06/23 04:26:38;;;;;;;5.27;2.77;;;18.90;99.90;;;;;;5138098;27;20168;-70
2022/06/23 04:29:18;;;;;;;4.60;3.50;;;19.00;99.90;;;;;;5139417;27;20573;-69
2022/06/23 04:31:50;;;;;;;5.53;2.73;;;19.00;99.90;;;;;;5139341;27;20206;-70
2022/06/23 04:34:36;;;;;;;2.53;2.33;;;19.00;99.90;;;;;;5138220;27;20603;-68
2022/06/23 04:37:02;;;;;;;2.30;2.20;;;19.10;99.90;;;;;;5139277;27;20238;-70
2022/06/23 04:39:42;;;;;;;4.73;3.93;;;19.10;99.90;;;;;;5139080;27;20170;-67
2022/06/23 04:42:19;;;;;;;3.27;2.90;;;19.10;99.90;;;;;;5138896;27;20170;-65
2022/06/23 04:44:48;;;;;;;4.93;3.43;;;19.10;99.90;;;;;;5138995;27;20253;-68
2022/06/23 04:47:25;;;;;;;3.37;3.03;;;19.20;99.90;;;;;;5138114;27;20188;-64
2022/06/23 04:49:58;;;;;;;4.60;3.53;;;19.20;99.90;;;;;;5139004;27;20166;-71
2022/06/23 04:52:32;;;;;;;5.07;3.67;;;19.30;99.90;;;;;;5138890;27;20185;-65
2022/06/23 04:55:05;;;;;;;7.97;4.37;;;19.30;99.90;;;;;;5138478;27;20207;-73
2022/06/23 04:57:42;;;;;;;5.10;3.47;;;19.40;99.90;;;;;;5138814;27;20178;-67
2022/06/23 05:00:22;;;;;;;5.23;4.67;;;19.40;99.90;;;;;;5138843;27;20239;-70
2022/06/23 05:02:55;;;;;;;6.17;3.40;;;19.50;99.90;;;;;;5138757;27;20169;-66
2022/06/23 05:05:29;;;;;;;7.93;3.63;;;19.40;99.90;;;;;;5137911;27;20197;-65
2022/06/23 05:08:13;;;;;;;5.40;3.73;;;19.40;99.90;;;;;;5138732;27;20169;-65
2022/06/23 05:11:11;;;;;;;4.27;3.87;;;19.50;99.90;;;;;;5138291;27;20209;-68
2022/06/23 05:13:49;;;;;;;5.77;3.93;;;19.60;99.90;;;;;;5130243;27;20193;-65
2022/06/23 05:16:29;;;;;;;5.53;5.03;;;19.70;99.90;;;;;;5138457;27;20176;-68
2022/06/23 05:18:57;;;;;;;5.10;4.67;;;19.70;99.90;;;;;;5138424;27;20193;-64
2022/06/23 05:21:25;;;;;;;6.10;5.40;;;19.70;99.90;;;;;;5138320;27;20169;-64
2022/06/23 05:23:54;;;;;;;12.40;6.10;;;19.70;99.90;;;;;;5137991;27;20201;-66
2022/06/23 05:26:28;;;;;;;4.20;3.80;;;19.80;99.90;;;;;;5138276;27;20568;-64
2022/06/23 05:29:21;;;;;;;9.63;4.90;;;19.80;99.90;;;;;;5138357;27;20556;-69
2022/06/23 05:32:12;;;;;;;7.30;4.37;;;19.80;99.90;;;;;;5138020;27;20524;-66
2022/06/23 05:34:56;;;;;;;4.97;4.00;;;19.90;99.90;;;;;;5138047;27;20616;-67
2022/06/23 05:37:42;;;;;;;10.63;5.93;;;19.90;99.90;;;;;;5137828;27;20249;-70
2022/06/23 05:40:15;;;;;;;4.97;4.53;;;19.80;99.90;;;;;;5137115;27;20193;-66
2022/06/23 05:42:46;;;;;;;6.67;5.30;;;19.30;99.90;;;;;;5134861;27;20607;-65
2022/06/23 05:45:36;;;;;;;9.03;5.10;;;19.10;99.90;;;;;;5137424;27;20197;-67
2022/06/23 05:48:08;;;;;;;5.03;4.53;;;-32.00;99.90;;;;;;5137894;27;20173;-64
2022/06/23 05:50:49;;;;;;;10.10;4.83;;;-26.70;99.90;;;;;;5137245;27;20181;-66
2022/06/23 05:53:24;;;;;;;13.53;4.43;;;-21.90;99.90;;;;;;5136793;27;20157;-67
2022/06/23 05:56:06;;;;;;;5.00;4.53;;;16.00;99.90;;;;;;5137412;27;20181;-67
2022/06/23 05:58:46;;;;;;;6.70;5.83;;;20.70;99.90;;;;;;5137355;27;20166;-67
2022/06/23 06:01:12;;;;;;;13.87;6.63;;;20.70;99.90;;;;;;5137440;27;20188;-71
2022/06/23 06:03:47;;;;;;;7.03;5.47;;;20.80;99.90;;;;;;5136520;27;20192;-70
2022/06/23 06:06:13;;;;;;;8.27;5.20;;;20.90;99.90;;;;;;5136522;27;20180;-73
2022/06/23 06:11:41;;;;;;;9.70;6.20;;;21.00;99.90;;;;;;5137264;27;20192;-67
2022/06/23 06:14:09;;;;;;;7.03;6.33;;;21.00;99.90;;;;;;5137352;27;20180;-69
2022/06/23 06:16:35;;;;;;;12.40;7.73;;;21.10;99.90;;;;;;5137084;27;20173;-67
2022/06/23 06:19:00;;;;;;;14.00;6.97;;;21.10;99.90;;;;;;5137322;27;20500;-69
2022/06/23 06:21:26;;;;;;;8.30;6.47;;;21.00;99.90;;;;;;5137187;27;20181;-70
2022/06/23 06:24:09;;;;;;;9.10;7.57;;;20.70;99.90;;;;;;5135940;27;20655;-72
2022/06/23 06:26:39;;;;;;;9.70;6.77;;;-24.40;99.90;;;;;;5135338;27;20786;-72
2022/06/23 06:29:13;;;;;;;7.93;5.67;;;-29.50;99.90;;;;;;5136877;27;20294;-72
2022/06/23 06:31:46;;;;;;;9.57;6.47;;;-24.20;99.90;;;;;;5136885;27;20165;-71
2022/06/23 06:34:22;;;;;;;14.13;6.93;;;-35.90;99.90;;;;;;5137131;27;20169;-71
2022/06/23 06:36:51;;;;;;;11.63;7.50;;;-29.20;99.90;;;;;;5135282;27;20188;-71
2022/06/23 06:39:42;;;;;;;12.17;6.53;;;-25.80;99.90;;;;;;5134237;27;20185;-68
2022/06/23 06:42:30;;;;;;;9.63;7.80;;;-29.80;99.90;;;;;;5128116;27;20181;-72
2022/06/23 06:44:59;;;;;;;9.17;7.27;;;-26.20;99.90;;;;;;5136777;27;20192;-72
2022/06/23 06:47:32;;;;;;;21.13;6.83;;;-22.00;99.90;;;;;;5136719;27;20165;-69
2022/06/23 06:50:16;;;;;;;8.30;6.97;;;16.20;99.90;;;;;;5136715;27;20577;-72
2022/06/23 06:52:42;;;;;;;14.87;7.07;;;22.40;99.90;;;;;;5136008;27;20189;-69
2022/06/23 06:55:35;;;;;;;12.30;7.27;;;22.60;99.90;;;;;;5134345;27;20188;-69
2022/06/23 06:58:17;;;;;;;12.53;7.50;;;22.50;99.90;;;;;;5115672;28;20193;-69
2022/06/23 07:00:55;;;;;;;9.93;7.23;;;22.60;99.90;;;;;;5134491;28;20528;-69
2022/06/23 07:03:23;;;;;;;14.07;8.23;;;22.60;99.90;;;;;;5135522;27;20452;-69
2022/06/23 07:06:15;;;;;;;12.93;7.63;;;22.60;99.90;;;;;;5135559;27;20173;-68
2022/06/23 07:08:47;;;;;;;11.23;8.13;;;22.40;99.90;;;;;;5131498;28;20189;-69
2022/06/23 07:11:33;;;;;;;7.47;6.47;;;21.70;99.90;;;;;;5114900;28;20189;-69
2022/06/23 07:14:16;;;;;;;11.03;7.77;;;20.30;99.90;;;;;;5115542;28;20580;-69
2022/06/23 07:17:10;;;;;;;9.73;6.93;;;23.30;99.90;;;;;;5115599;28;20178;-70
2022/06/23 07:19:42;;;;;;;13.27;7.03;;;23.40;99.90;;;;;;5118265;28;20956;-69
2022/06/23 07:22:27;;;;;;;8.67;7.77;;;23.40;99.90;;;;;;5115709;27;20217;-68
2022/06/23 07:25:04;;;;;;;21.50;9.03;;;23.00;99.90;;;;;;5115467;28;20326;-69
2022/06/23 07:27:42;;;;;;;9.00;8.10;;;-37.90;99.90;;;;;;5117527;28;20586;-71
2022/06/23 07:30:27;;;;;;;10.23;8.10;;;-40.00;99.90;;;;;;5118700;28;20336;-69
2022/06/23 07:33:00;;;;;;;14.30;7.80;;;-40.00;99.90;;;;;;5119419;28;20166;-70
2022/06/23 07:36:07;;;;;;;11.77;7.40;;;-39.40;99.90;;;;;;5119514;28;20195;-68
2022/06/23 07:38:36;;;;;;;9.67;7.33;;;-32.60;99.90;;;;;;5076692;28;20191;-69
2022/06/23 07:41:18;;;;;;;14.73;7.87;;;-28.60;99.90;;;;;;5124227;27;20227;-69
2022/06/23 07:44:04;;;;;;;7.47;6.77;;;-40.00;99.90;;;;;;5118916;28;20922;-69
2022/06/23 07:46:37;;;;;;;10.20;7.97;;;-40.00;99.90;;;;;;5119706;28;20568;-70
2022/06/23 07:49:04;;;;;;;13.73;7.73;;;-29.60;99.90;;;;;;5118781;28;20174;-70
2022/06/23 07:51:30;;;;;;;9.90;6.67;;;-25.00;99.90;;;;;;5118962;28;20194;-68
2022/06/23 07:53:57;;;;;;;10.37;8.67;;;-33.30;99.90;;;;;;5118453;28;20202;-68
2022/06/23 07:56:30;;;;;;;11.13;7.30;;;18.60;99.90;;;;;;5119570;28;20257;-68
2022/06/23 07:59:01;;;;;;;9.97;7.57;;;23.80;99.90;;;;;;5119226;27;20170;-70
2022/06/23 08:01:57;;;;;;;11.90;6.97;;;23.80;99.90;;;;;;5118839;28;20186;-68
2022/06/23 08:04:35;;;;;;;9.33;8.33;;;23.60;99.90;;;;;;5118808;28;20197;-69
2022/06/23 08:07:03;;;;;;;8.27;6.53;;;23.90;99.90;;;;;;5119090;28;20174;-70
2022/06/23 08:09:37;;;;;;;9.17;6.90;;;23.90;99.90;;;;;;5117678;28;20231;-69
2022/06/23 08:16:49;;;;;;;12.87;7.30;;;23.40;99.90;;;;;;5138984;27;20249;-70
2022/06/23 08:17:41;;;;;;;6.50;5.87;;;24.80;99.90;;;;;;5139539;27;20184;-69
2022/06/23 08:20:12;;;;;;;10.73;6.43;;;24.70;99.90;;;;;;5120224;27;20276;-69
2022/06/23 08:22:39;;;;;;;11.00;6.93;;;-17.00;99.90;;;;;;5117546;28;20181;-69
2022/06/23 08:25:06;;;;;;;7.23;5.80;;;-20.10;99.90;;;;;;5117470;28;20205;-69
2022/06/23 08:27:34;;;;;;;10.33;7.37;;;-15.10;99.90;;;;;;5118684;28;20166;-69
2022/06/23 08:30:14;;;;;;;6.73;5.67;;;-19.40;99.90;;;;;;5118177;27;20231;-69
2022/06/23 08:32:44;;;;;;;8.27;5.90;;;-18.00;99.90;;;;;;5119652;27;20243;-70
2022/06/23 08:35:30;;;;;;;6.30;5.70;;;-11.70;99.90;;;;;;5118398;28;20197;-68
2022/06/23 08:38:01;;;;;;;8.73;6.47;;;-14.80;99.90;;;;;;5117735;28;20243;-69
2022/06/23 08:40:42;;;;;;;8.33;5.60;;;-16.60;99.90;;;;;;5130346;27;20264;-69
2022/06/23 08:43:24;;;;;;;8.63;7.00;;;-28.10;99.90;;;;;;5138458;27;20505;-68
2022/06/23 08:46:08;;;;;;;6.87;6.27;;;25.40;99.90;;;;;;5138804;27;20177;-70
2022/06/23 08:49:02;;;;;;;6.53;5.50;;;25.30;99.90;;;;;;5137652;27;20165;-71
2022/06/23 08:51:49;;;;;;;10.57;6.70;;;25.00;99.90;;;;;;5137913;27;20220;-69
2022/06/23 08:54:35;;;;;;;6.37;5.87;;;25.10;99.90;;;;;;5138432;27;20173;-70
2022/06/23 08:57:23;;;;;;;7.20;6.60;;;25.10;99.90;;;;;;5137466;27;20184;-72
2022/06/23 08:59:56;;;;;;;10.27;6.37;;;24.90;99.90;;;;;;5138431;27;20174;-70
2022/06/23 09:02:48;;;;;;;8.90;6.83;;;24.80;99.90;;;;;;5137946;27;20199;-72
2022/06/23 09:05:28;;;;;;;6.07;5.47;;;25.00;99.90;;;;;;5127549;27;20214;-72
2022/06/23 09:08:08;;;;;;;4.90;4.50;;;25.20;99.90;;;;;;5123706;27;20177;-70
2022/06/23 09:11:01;;;;;;;11.47;6.23;;;25.20;99.90;;;;;;5127867;27;20225;-73
2022/06/23 09:13:54;;;;;;;5.77;5.00;;;25.20;99.90;;;;;;5119656;27;20500;-72
2022/06/23 09:16:34;;;;;;;6.13;3.73;;;25.50;99.90;;;;;;5129414;27;20188;-72
2022/06/23 09:19:31;;;;;;;7.30;6.60;;;25.50;99.90;;;;;;5138226;27;20249;-71
2022/06/23 09:22:15;;;;;;;4.97;4.43;;;25.60;99.90;;;;;;5137154;27;20565;-70
2022/06/23 09:24:44;;;;;;;4.70;4.30;;;26.20;99.90;;;;;;5137948;27;20201;-73
2022/06/23 09:27:27;;;;;;;6.80;5.50;;;26.20;99.90;;;;;;5137973;27;20273;-73
2022/06/23 09:29:57;;;;;;;13.00;5.33;;;26.10;99.90;;;;;;5137786;27;20170;-73
2022/06/23 09:32:54;;;;;;;7.87;5.90;;;26.20;99.90;;;;;;5135891;27;20527;-75
2022/06/23 09:35:26;;;;;;;7.90;5.17;;;26.20;99.90;;;;;;5136714;27;20174;-71
2022/06/23 09:37:58;;;;;;;9.30;4.93;;;26.10;99.90;;;;;;5137509;27;20209;-73
2022/06/23 09:40:52;;;;;;;6.13;4.37;;;26.00;99.90;;;;;;5136855;27;20310;-71
2022/06/23 09:43:45;;;;;;;6.03;4.67;;;25.30;99.90;;;;;;5117973;27;20197;-73
2022/06/23 09:46:32;;;;;;;3.80;3.47;;;26.10;99.90;;;;;;5137267;27;20272;-72
2022/06/23 09:49:16;;;;;;;7.70;5.10;;;26.30;99.90;;;;;;5137605;27;20165;-73
2022/06/23 09:51:54;;;;;;;4.07;3.67;;;26.40;99.90;;;;;;5136576;27;20671;-70
2022/06/23 09:54:41;;;;;;;8.00;5.33;;;26.30;99.90;;;;;;5137506;27;20172;-72
2022/06/23 09:57:33;;;;;;;6.23;4.27;;;26.50;99.90;;;;;;5137393;27;20179;-69
2022/06/23 10:00:25;;;;;;;4.70;4.30;;;26.90;99.90;;;;;;5135932;27;20212;-69
2022/06/23 10:03:22;;;;;;;8.10;3.87;;;26.80;99.90;;;;;;5091934;28;20281;-71
2022/06/23 10:06:04;;;;;;;5.60;4.73;;;26.20;99.90;;;;;;5116599;28;20188;-69
2022/06/23 10:08:52;;;;;;;6.73;3.77;;;-40.00;84.20;;;;;;5116811;28;20620;-69
2022/06/23 10:12:08;;;;;;;7.73;4.40;;;-40.00;83.00;;;;;;5136034;27;20592;-69
2022/06/23 10:14:58;;;;;;;7.87;4.33;;;-40.00;81.70;;;;;;5093676;28;20196;-72
2022/06/23 10:18:18;;;;;;;8.83;4.20;;;-40.00;80.80;;;;;;5093433;28;20207;-72
2022/06/23 10:20:56;;;;;;;8.63;4.43;;;-40.00;81.40;;;;;;5117888;27;20189;-69
2022/06/23 10:23:28;;;;;;;5.73;3.80;;;-40.00;79.40;;;;;;5136941;27;20172;-70
2022/06/23 10:26:10;;;;;;;8.20;4.23;;;-40.00;78.90;;;;;;5136785;27;20225;-70
2022/06/23 10:28:36;;;;;;;7.20;4.43;;;-40.00;81.20;;;;;;5135967;27;20218;-69
2022/06/23 10:31:30;;;;;;;3.87;3.47;;;-40.00;81.60;;;;;;5134868;27;20757;-69
2022/06/23 10:34:05;;;;;;;4.90;4.23;;;-40.00;79.60;;;;;;5135298;27;20173;-70
2022/06/23 10:36:56;;;;;;;3.50;3.03;;;-40.00;80.10;;;;;;5123525;27;20192;-70
2022/06/23 10:39:28;;;;;;;9.93;4.57;;;-40.00;74.70;;;;;;5135450;27;20216;-70
2022/06/23 10:42:21;;;;;;;5.53;4.70;;;-40.00;77.60;;;;;;5136341;27;20216;-70
2022/06/23 10:44:59;;;;;;;5.37;4.03;;;-40.00;80.80;;;;;;5134274;27;20196;-70
2022/06/23 10:47:47;;;;;;;4.23;3.53;;;-40.00;76.80;;;;;;5135557;27;20267;-69
2022/06/23 10:50:51;;;;;;;6.43;4.17;;;-40.00;76.60;;;;;;5136540;27;20233;-70
2022/06/23 10:53:48;;;;;;;5.53;2.97;;;-40.00;73.40;;;;;;5136463;27;20204;-70
2022/06/23 10:56:20;;;;;;;3.43;2.90;;;-40.00;76.30;;;;;;5136325;27;20252;-69
2022/06/23 10:59:25;;;;;;;4.13;3.77;;;-40.00;74.80;;;;;;5135307;27;20250;-70
2022/06/23 11:02:03;;;;;;;4.33;3.63;;;-40.00;72.10;;;;;;5134925;27;20199;-69
2022/06/23 11:04:43;;;;;;;3.67;3.03;;;-40.00;72.90;;;;;;5135851;27;20497;-68
2022/06/23 11:07:40;;;;;;;7.07;4.60;;;-40.00;71.90;;;;;;5135839;27;20189;-69
2022/06/23 11:10:21;;;;;;;5.03;3.20;;;-40.00;68.90;;;;;;5106957;27;20198;-68
2022/06/23 11:13:11;;;;;;;3.33;2.93;;;-40.00;70.40;;;;;;5114483;28;20552;-68
2022/06/23 11:15:57;;;;;;;6.77;3.57;;;-40.00;67.20;;;;;;5115791;28;20174;-68
2022/06/23 11:18:41;;;;;;;18.17;9.70;;;-40.00;67.20;;;;;;5115788;28;20173;-69
2022/06/23 11:21:22;;;;;;;4.37;3.83;;;-40.00;67.00;;;;;;5114585;28;20174;-69
2022/06/23 11:23:59;;;;;;;3.93;2.83;;;-40.00;65.30;;;;;;5122193;28;20189;-68
2022/06/23 11:26:54;;;;;;;8.43;3.87;;;-40.00;64.30;;;;;;5135034;27;20165;-69
2022/06/23 11:29:59;;;;;;;6.37;2.93;;;-40.00;62.00;;;;;;5123583;28;20205;-70
2022/06/23 11:32:47;;;;;;;3.07;2.33;;;-40.00;58.80;;;;;;5135008;28;20276;-72
2022/06/23 11:35:30;;;;;;;3.20;2.80;;;-40.00;59.40;;;;;;5135728;27;20173;-70
2022/06/23 11:38:24;;;;;;;5.60;3.80;;;-40.00;58.90;;;;;;5134860;28;20216;-71
2022/06/23 11:41:19;;;;;;;6.93;2.80;;;-40.00;60.30;;;;;;5134870;27;20233;-72
2022/06/23 11:43:51;;;;;;;3.90;3.50;;;-40.00;61.10;;;;;;5126976;28;20338;-72
2022/06/23 11:46:23;;;;;;;3.33;2.50;;;-40.00;62.10;;;;;;5115356;28;20166;-72
2022/06/23 11:49:09;;;;;;;4.07;3.60;;;-40.00;60.80;;;;;;5114776;28;20173;-72
2022/06/23 11:52:02;;;;;;;3.50;3.30;;;-40.00;59.70;;;;;;5126913;28;20224;-70
2022/06/23 11:54:35;;;;;;;10.32;4.05;;;-40.00;61.20;;;;;;5134632;27;20260;-71
2022/06/23 11:57:25;;;;;;;3.13;2.38;;;-40.00;58.10;;;;;;5134516;28;20176;-71
2022/06/23 12:00:14;;;;;;;5.40;2.45;;;-40.00;55.50;;;;;;5134651;28;20169;-70
2022/06/23 12:03:14;;;;;;;2.78;2.58;;;-40.00;54.30;;;;;;5133618;28;20577;-71
2022/06/23 12:06:03;;;;;;;2.72;2.22;;;-40.00;51.30;;;;;;5115202;27;20215;-71
2022/06/23 12:08:59;;;;;;;3.75;2.65;;;-40.00;50.20;;;;;;5115172;28;20467;-70
2022/06/23 12:11:26;;;;;;;4.05;3.08;;;-40.00;48.90;;;;;;5123521;28;20191;-72
2022/06/23 12:13:52;;;;;;;3.47;3.20;;;-40.00;48.80;;;;;;5137732;27;20169;-70
2022/06/23 12:16:18;;;;;;;3.22;2.55;;;-40.00;48.90;;;;;;5139326;27;20161;-70
2022/06/23 12:18:58;;;;;;;3.10;2.05;;;-40.00;48.50;;;;;;5138704;27;20188;-70
2022/06/23 12:21:42;;;;;;;3.80;2.42;;;-40.00;48.90;;;;;;5138452;27;20177;-70
2022/06/23 12:24:41;;;;;;;5.20;2.95;;;-39.70;45.00;;;;;;5139067;27;20485;-70
2022/06/23 12:27:25;;;;;;;2.58;2.38;;;-6.60;61.80;;;;;;5138682;27;20189;-70
2022/06/23 12:29:54;;;;;;;6.03;3.45;;;-3.60;63.00;;;;;;5139041;27;20240;-70
2022/06/23 12:32:45;;;;;;;2.83;2.58;;;-0.60;63.20;;;;;;5138433;27;20173;-71
2022/06/23 12:35:55;;;;;;;2.65;2.45;;;2.40;68.50;;;;;;5137784;27;20245;-71
2022/06/23 12:38:50;;;;;;;3.42;2.65;;;2.30;65.40;;;;;;5095622;28;20218;-71
2022/06/23 12:41:28;;;;;;;3.38;3.00;;;0.30;64.80;;;;;;5089011;28;20247;-73
2022/06/23 12:44:03;;;;;;;6.40;3.47;;;-1.10;62.20;;;;;;5111744;28;20635;-69
2022/06/23 12:46:53;;;;;;;3.22;3.13;;;2.50;62.00;;;;;;5127892;27;20260;-69
2022/06/23 12:49:38;;;;;;;3.45;3.13;;;3.00;61.60;;;;;;5120506;27;20174;-71
2022/06/23 12:52:34;;;;;;;3.10;2.80;;;3.70;65.70;;;;;;5134398;27;20607;-70
2022/06/23 12:55:22;;;;;;;4.78;2.95;;;3.70;62.50;;;;;;5138512;27;20169;-71
2022/06/23 12:57:59;;;;;;;3.03;2.25;;;5.30;61.30;;;;;;5138391;27;20468;-69
2022/06/23 13:00:45;;;;;;;3.42;2.60;;;-1.00;59.40;;;;;;5137612;27;20248;-70
2022/06/23 13:03:33;;;;;;;2.20;2.10;;;1.40;62.30;;;;;;5138422;27;20161;-70
2022/06/23 13:06:34;;;;;;;3.10;2.75;;;3.00;61.80;;;;;;5136716;27;20536;-70
2022/06/23 13:09:15;;;;;;;2.63;2.35;;;6.90;63.80;;;;;;5135668;27;20659;-70
2022/06/23 13:11:59;;;;;;;3.63;3.42;;;10.50;62.20;;;;;;5137528;27;20608;-70
2022/06/23 13:14:28;;;;;;;4.53;3.25;;;12.70;60.70;;;;;;5129184;27;20210;-71
2022/06/23 13:17:26;;;;;;;3.08;2.97;;;11.70;61.50;;;;;;5117303;28;20161;-70
2022/06/23 13:20:19;;;;;;;4.43;3.08;;;13.70;60.80;;;;;;5101593;28;20262;-70
2022/06/23 13:23:06;;;;;;;4.45;2.85;;;15.20;63.40;;;;;;5117299;27;20166;-73
2022/06/23 13:25:34;;;;;;;3.40;3.10;;;13.80;58.70;;;;;;5116567;28;20551;-70
2022/06/23 13:28:05;;;;;;;3.88;3.58;;;15.00;63.40;;;;;;5117267;28;20170;-71
2022/06/23 13:30:46;;;;;;;3.35;3.03;;;13.80;58.90;;;;;;5120862;27;20674;-70
2022/06/23 13:33:32;;;;;;;3.15;2.95;;;14.40;62.30;;;;;;5137967;27;20153;-71
2022/06/23 13:36:04;;;;;;;3.00;2.80;;;13.60;59.00;;;;;;5137602;27;20173;-70
2022/06/23 13:38:37;;;;;;;4.10;3.22;;;15.40;57.30;;;;;;5137194;27;20180;-71
2022/06/23 13:41:21;;;;;;;3.72;2.67;;;15.30;59.10;;;;;;5127289;27;20240;-70
2022/06/23 13:44:05;;;;;;;5.95;2.63;;;15.40;57.50;;;;;;5137841;27;20189;-70
2022/06/23 13:46:39;;;;;;;3.00;2.67;;;15.50;57.10;;;;;;5136023;27;20278;-70
2022/06/23 13:49:19;;;;;;;5.43;2.92;;;16.00;58.70;;;;;;5137379;27;20176;-70
2022/06/23 13:51:58;;;;;;;3.03;2.67;;;15.50;56.40;;;;;;5136618;27;20203;-74
2022/06/23 13:54:44;;;;;;;5.28;3.00;;;14.10;56.10;;;;;;5137602;27;20165;-75
2022/06/23 13:57:36;;;;;;;6.13;3.38;;;16.10;56.30;;;;;;5137424;27;20345;-74
2022/06/23 14:00:15;;;;;;;6.03;4.07;;;17.50;54.10;;;;;;5136981;27;20166;-72
2022/06/23 14:03:06;;;;;;;6.90;2.70;;;17.40;54.90;;;;;;5116734;28;20169;-72
2022/06/23 14:05:43;;;;;;;4.18;3.47;;;15.00;54.20;;;;;;5115346;28;20212;-70
2022/06/23 14:08:17;;;;;;;6.30;4.20;;;16.10;56.30;;;;;;5116295;28;20177;-71